BCY647 ESGG-EDDH
Flight info
| Callsign | BCY647 |
|---|---|
| Flight time | 0h 59m |
| Altitude | 36000 |
| Route | VADIN DCT ALASA/N0449F350 M852 EKERN/N0412F230 T905 BOGMU |
| Aircraft | CRJ9/M-SDFGIRWY/S |
Departure
| Time | 2026-04-30 18:26 |
|---|---|
| Airport | Göteborg Landvetter Airport (ESGG) |
Arrival
| Time | 2026-04-30 19:26 |
|---|---|
| Airport | Hamburg Helmut Schmidt Airport (EDDH) |
| Time | Latitude | Longitude | Altitude | Speed | Heading |
|---|---|---|---|---|---|
| 2026-04-30 18:09 | 57.67453 | 12.29679 | 515 ft | 0 kts | 161° |
| 2026-04-30 18:23 | 57.67440 | 12.29667 | 514 ft | 7 kts | 223° |
| 2026-04-30 18:23 | 57.67403 | 12.29541 | 514 ft | 14 kts | 233° |
| 2026-04-30 18:23 | 57.67402 | 12.29485 | 514 ft | 2 kts | 289° |
| 2026-04-30 18:24 | 57.67436 | 12.29363 | 514 ft | 9 kts | 302° |
| 2026-04-30 18:24 | 57.67442 | 12.29342 | 514 ft | 0 kts | 297° |
| 2026-04-30 18:24 | 57.67447 | 12.29325 | 514 ft | 5 kts | 296° |
| 2026-04-30 18:25 | 57.67455 | 12.29199 | 513 ft | 18 kts | 261° |
| 2026-04-30 18:25 | 57.66913 | 12.28533 | 508 ft | 108 kts | 205° |
| 2026-04-30 18:25 | 57.66015 | 12.27731 | 516 ft | 173 kts | 207° |
| 2026-04-30 18:26 | 57.63639 | 12.25640 | 2176 ft | 188 kts | 210° |
| 2026-04-30 18:26 | 57.62436 | 12.24523 | 2897 ft | 205 kts | 210° |
| 2026-04-30 18:26 | 57.61096 | 12.23241 | 3489 ft | 228 kts | 209° |
| 2026-04-30 18:27 | 57.57861 | 12.20858 | 4650 ft | 274 kts | 184° |
| 2026-04-30 18:27 | 57.55939 | 12.21190 | 4925 ft | 279 kts | 172° |
| 2026-04-30 18:28 | 57.52070 | 12.21550 | 4996 ft | 278 kts | 182° |
| 2026-04-30 18:28 | 57.50125 | 12.21376 | 5122 ft | 281 kts | 185° |
| 2026-04-30 18:28 | 57.46214 | 12.20669 | 6822 ft | 285 kts | 187° |
| 2026-04-30 18:29 | 57.44258 | 12.19963 | 7747 ft | 289 kts | 202° |
| 2026-04-30 18:29 | 57.39668 | 12.12626 | 10547 ft | 299 kts | 227° |
| 2026-04-30 18:30 | 57.36578 | 12.06760 | 11360 ft | 343 kts | 226° |
| 2026-04-30 18:30 | 57.33123 | 12.00277 | 12786 ft | 359 kts | 226° |
| 2026-04-30 18:31 | 57.31404 | 11.97065 | 13588 ft | 364 kts | 226° |
| 2026-04-30 18:31 | 57.27791 | 11.90335 | 15126 ft | 373 kts | 226° |
| 2026-04-30 18:32 | 57.24118 | 11.83509 | 16590 ft | 380 kts | 226° |
| 2026-04-30 18:32 | 57.22244 | 11.80035 | 17324 ft | 384 kts | 226° |
| 2026-04-30 18:32 | 57.18438 | 11.72986 | 18757 ft | 392 kts | 227° |
| 2026-04-30 18:33 | 57.16502 | 11.69413 | 19379 ft | 395 kts | 227° |
| 2026-04-30 18:33 | 57.12079 | 11.63210 | 20591 ft | 406 kts | 209° |
| 2026-04-30 18:33 | 57.09496 | 11.61043 | 21187 ft | 410 kts | 203° |
| 2026-04-30 18:34 | 57.06835 | 11.59040 | 21782 ft | 414 kts | 203° |
| 2026-04-30 18:34 | 57.01458 | 11.54941 | 22956 ft | 422 kts | 204° |
| 2026-04-30 18:34 | 56.98767 | 11.52879 | 23522 ft | 426 kts | 204° |
| 2026-04-30 18:35 | 56.96001 | 11.50763 | 24079 ft | 430 kts | 204° |
| 2026-04-30 18:35 | 56.93233 | 11.48650 | 24582 ft | 432 kts | 204° |
| 2026-04-30 18:35 | 56.90446 | 11.46527 | 25084 ft | 435 kts | 204° |
| 2026-04-30 18:36 | 56.84816 | 11.42251 | 26040 ft | 441 kts | 204° |
| 2026-04-30 18:36 | 56.81971 | 11.40096 | 26504 ft | 444 kts | 204° |
| 2026-04-30 18:36 | 56.76260 | 11.35779 | 27395 ft | 449 kts | 204° |
| 2026-04-30 18:37 | 56.73360 | 11.33594 | 27834 ft | 452 kts | 204° |
| 2026-04-30 18:37 | 56.70447 | 11.31401 | 28247 ft | 455 kts | 204° |
| 2026-04-30 18:37 | 56.67517 | 11.29200 | 28655 ft | 457 kts | 204° |
| 2026-04-30 18:37 | 56.64562 | 11.26984 | 29059 ft | 460 kts | 204° |
| 2026-04-30 18:38 | 56.61590 | 11.24759 | 29445 ft | 462 kts | 204° |
| 2026-04-30 18:38 | 56.58601 | 11.22525 | 29823 ft | 465 kts | 204° |
| 2026-04-30 18:38 | 56.55598 | 11.20284 | 30180 ft | 467 kts | 204° |
| 2026-04-30 18:38 | 56.52586 | 11.18040 | 30548 ft | 469 kts | 204° |
| 2026-04-30 18:39 | 56.49593 | 11.15814 | 30862 ft | 471 kts | 204° |
| 2026-04-30 18:39 | 56.46555 | 11.13559 | 31219 ft | 473 kts | 204° |
| 2026-04-30 18:39 | 56.43504 | 11.11299 | 31550 ft | 474 kts | 204° |
| 2026-04-30 18:39 | 56.40453 | 11.09042 | 31960 ft | 474 kts | 204° |
| 2026-04-30 18:40 | 56.37394 | 11.06784 | 32407 ft | 473 kts | 204° |
| 2026-04-30 18:40 | 56.34356 | 11.04544 | 32848 ft | 471 kts | 204° |
| 2026-04-30 18:40 | 56.31323 | 11.02312 | 33280 ft | 470 kts | 203° |
| 2026-04-30 18:40 | 56.28306 | 11.00099 | 33693 ft | 468 kts | 203° |
| 2026-04-30 18:41 | 56.25290 | 10.97888 | 33925 ft | 467 kts | 204° |
| 2026-04-30 18:41 | 56.19275 | 10.93485 | 33589 ft | 466 kts | 203° |
| 2026-04-30 18:41 | 56.16273 | 10.91294 | 33319 ft | 466 kts | 203° |
| 2026-04-30 18:42 | 56.13253 | 10.89093 | 33049 ft | 467 kts | 203° |
| 2026-04-30 18:42 | 56.07244 | 10.84748 | 32521 ft | 469 kts | 204° |
| 2026-04-30 18:42 | 56.04209 | 10.82540 | 32260 ft | 469 kts | 204° |
| 2026-04-30 18:45 | 55.73894 | 10.60753 | 29649 ft | 464 kts | 203° |
| 2026-04-30 18:45 | 55.70907 | 10.58628 | 29361 ft | 462 kts | 203° |
| 2026-04-30 18:45 | 55.67924 | 10.56509 | 29076 ft | 460 kts | 203° |
| 2026-04-30 18:46 | 55.64957 | 10.54406 | 28804 ft | 458 kts | 203° |
| 2026-04-30 18:46 | 55.62001 | 10.52313 | 28532 ft | 457 kts | 203° |
| 2026-04-30 18:46 | 55.59059 | 10.50233 | 28263 ft | 455 kts | 203° |
| 2026-04-30 18:46 | 55.56122 | 10.48161 | 27993 ft | 453 kts | 203° |
| 2026-04-30 18:47 | 55.53191 | 10.46095 | 27728 ft | 452 kts | 203° |
| 2026-04-30 18:47 | 55.50279 | 10.44047 | 27464 ft | 450 kts | 203° |
| 2026-04-30 18:47 | 55.47410 | 10.42032 | 27207 ft | 448 kts | 202° |
| 2026-04-30 18:47 | 55.44515 | 10.40002 | 26953 ft | 447 kts | 202° |
| 2026-04-30 18:48 | 55.41631 | 10.37983 | 26695 ft | 445 kts | 202° |
| 2026-04-30 18:48 | 55.38745 | 10.35966 | 26448 ft | 444 kts | 202° |
| 2026-04-30 18:48 | 55.35876 | 10.33964 | 26194 ft | 442 kts | 202° |
| 2026-04-30 18:48 | 55.33988 | 10.32648 | 26032 ft | 441 kts | 202° |
| 2026-04-30 18:49 | 55.30174 | 10.29994 | 25703 ft | 439 kts | 202° |
| 2026-04-30 18:49 | 55.27343 | 10.28027 | 25462 ft | 438 kts | 202° |
| 2026-04-30 18:49 | 55.24503 | 10.26058 | 25219 ft | 436 kts | 202° |
| 2026-04-30 18:49 | 55.21719 | 10.24130 | 24985 ft | 435 kts | 202° |
| 2026-04-30 18:50 | 55.18910 | 10.22188 | 24743 ft | 434 kts | 202° |
| 2026-04-30 18:50 | 55.16112 | 10.20255 | 24518 ft | 432 kts | 201° |
| 2026-04-30 18:50 | 55.13311 | 10.18324 | 24292 ft | 431 kts | 201° |
| 2026-04-30 18:50 | 55.10521 | 10.16404 | 24054 ft | 430 kts | 201° |
| 2026-04-30 18:51 | 55.07743 | 10.14494 | 23783 ft | 428 kts | 201° |
| 2026-04-30 18:51 | 55.04972 | 10.12592 | 23527 ft | 426 kts | 201° |
| 2026-04-30 18:51 | 55.03152 | 10.11344 | 23456 ft | 424 kts | 201° |
| 2026-04-30 18:51 | 54.99500 | 10.08846 | 23459 ft | 426 kts | 201° |
| 2026-04-30 18:52 | 54.96744 | 10.06964 | 23459 ft | 426 kts | 201° |
| 2026-04-30 18:52 | 54.93978 | 10.05077 | 23446 ft | 425 kts | 201° |
| 2026-04-30 18:52 | 54.92150 | 10.03831 | 23461 ft | 426 kts | 201° |
| 2026-04-30 18:52 | 54.89392 | 10.01953 | 23458 ft | 425 kts | 200° |
| 2026-04-30 18:53 | 54.86633 | 10.00099 | 23447 ft | 426 kts | 201° |
| 2026-04-30 18:53 | 54.83887 | 9.98231 | 23451 ft | 416 kts | 201° |
| 2026-04-30 18:53 | 54.81227 | 9.96534 | 23453 ft | 398 kts | 197° |
| 2026-04-30 18:53 | 54.78586 | 9.95387 | 23269 ft | 386 kts | 189° |
| 2026-04-30 18:54 | 54.75962 | 9.94553 | 22812 ft | 382 kts | 189° |
| 2026-04-30 18:54 | 54.73356 | 9.93718 | 22377 ft | 377 kts | 189° |
| 2026-04-30 18:54 | 54.70786 | 9.92890 | 21981 ft | 372 kts | 189° |
| 2026-04-30 18:54 | 54.68285 | 9.92082 | 21600 ft | 368 kts | 189° |
| 2026-04-30 18:55 | 54.65778 | 9.91272 | 21211 ft | 363 kts | 189° |
| 2026-04-30 18:55 | 54.60867 | 9.89687 | 20458 ft | 355 kts | 189° |
| 2026-04-30 18:55 | 54.58448 | 9.88908 | 20086 ft | 351 kts | 189° |
| 2026-04-30 18:56 | 54.53697 | 9.87380 | 19366 ft | 344 kts | 188° |
| 2026-04-30 18:56 | 54.51339 | 9.86977 | 19021 ft | 337 kts | 174° |
| 2026-04-30 18:56 | 54.49070 | 9.87687 | 18663 ft | 329 kts | 158° |
| 2026-04-30 18:57 | 54.45008 | 9.90921 | 17862 ft | 309 kts | 151° |
| 2026-04-30 18:57 | 54.43126 | 9.92457 | 17465 ft | 290 kts | 151° |
| 2026-04-30 18:57 | 54.41340 | 9.93910 | 17084 ft | 284 kts | 151° |
| 2026-04-30 18:58 | 54.37755 | 9.96839 | 16330 ft | 285 kts | 150° |
| 2026-04-30 18:58 | 54.35977 | 9.98284 | 15955 ft | 281 kts | 150° |
| 2026-04-30 18:58 | 54.34223 | 9.99706 | 15589 ft | 277 kts | 150° |
| 2026-04-30 18:59 | 54.30780 | 10.02497 | 14867 ft | 272 kts | 150° |
| 2026-04-30 19:00 | 54.25741 | 10.06655 | 13696 ft | 265 kts | 149° |
| 2026-04-30 19:00 | 54.24070 | 10.08016 | 13247 ft | 266 kts | 150° |
| 2026-04-30 19:00 | 54.20739 | 10.10683 | 12379 ft | 263 kts | 150° |
| 2026-04-30 19:01 | 54.17443 | 10.13307 | 11588 ft | 258 kts | 152° |
| 2026-04-30 19:01 | 54.15828 | 10.14585 | 11477 ft | 259 kts | 151° |
| 2026-04-30 19:02 | 54.12444 | 10.17296 | 11790 ft | 274 kts | 148° |
| 2026-04-30 19:02 | 54.08985 | 10.20306 | 10687 ft | 284 kts | 153° |
| 2026-04-30 19:03 | 54.05200 | 10.21986 | 9807 ft | 276 kts | 158° |
| 2026-04-30 19:03 | 54.01625 | 10.24397 | 8566 ft | 277 kts | 149° |
| 2026-04-30 19:04 | 53.98392 | 10.27621 | 8361 ft | 248 kts | 145° |
| 2026-04-30 19:04 | 53.95200 | 10.29690 | 8446 ft | 248 kts | 161° |
| 2026-04-30 19:05 | 53.91818 | 10.30949 | 8445 ft | 249 kts | 166° |
| 2026-04-30 19:05 | 53.88412 | 10.32078 | 8442 ft | 249 kts | 163° |
| 2026-04-30 19:06 | 53.85007 | 10.33243 | 8446 ft | 250 kts | 165° |
| 2026-04-30 19:06 | 53.83297 | 10.33776 | 8443 ft | 250 kts | 166° |
| 2026-04-30 19:06 | 53.79896 | 10.34826 | 8443 ft | 249 kts | 166° |
| 2026-04-30 19:07 | 53.76520 | 10.36151 | 8359 ft | 250 kts | 163° |
| 2026-04-30 19:07 | 53.74817 | 10.36710 | 8214 ft | 249 kts | 166° |
| 2026-04-30 19:08 | 53.71389 | 10.36845 | 7913 ft | 255 kts | 200° |
| 2026-04-30 19:08 | 53.68778 | 10.32736 | 7593 ft | 261 kts | 230° |
| 2026-04-30 19:08 | 53.67669 | 10.30364 | 7451 ft | 260 kts | 230° |
| 2026-04-30 19:09 | 53.65425 | 10.25604 | 7148 ft | 258 kts | 229° |
| 2026-04-30 19:09 | 53.64291 | 10.23254 | 6999 ft | 258 kts | 229° |
| 2026-04-30 19:09 | 53.63154 | 10.20931 | 6854 ft | 257 kts | 229° |
| 2026-04-30 19:10 | 53.60879 | 10.16302 | 6540 ft | 255 kts | 228° |
| 2026-04-30 19:10 | 53.58619 | 10.11724 | 6224 ft | 253 kts | 228° |
| 2026-04-30 19:11 | 53.57510 | 10.09481 | 6071 ft | 251 kts | 228° |
| 2026-04-30 19:11 | 53.55279 | 10.04973 | 5761 ft | 249 kts | 228° |
| 2026-04-30 19:11 | 53.54170 | 10.02734 | 5618 ft | 248 kts | 224° |
| 2026-04-30 19:12 | 53.53031 | 10.00537 | 5462 ft | 248 kts | 227° |
| 2026-04-30 19:12 | 53.51917 | 9.98327 | 5319 ft | 247 kts | 227° |
| 2026-04-30 19:12 | 53.50813 | 9.96129 | 5170 ft | 245 kts | 227° |
| 2026-04-30 19:13 | 53.48670 | 9.91744 | 5000 ft | 244 kts | 229° |
| 2026-04-30 19:13 | 53.46513 | 9.87335 | 5000 ft | 244 kts | 228° |
| 2026-04-30 19:13 | 53.45423 | 9.85135 | 4994 ft | 244 kts | 228° |
| 2026-04-30 19:14 | 53.44333 | 9.82944 | 4995 ft | 244 kts | 228° |
| 2026-04-30 19:14 | 53.43245 | 9.80763 | 4998 ft | 244 kts | 228° |
| 2026-04-30 19:14 | 53.42151 | 9.78572 | 4989 ft | 244 kts | 228° |
| 2026-04-30 19:14 | 53.41063 | 9.76394 | 4997 ft | 244 kts | 227° |
| 2026-04-30 19:15 | 53.39969 | 9.74207 | 4997 ft | 244 kts | 227° |
| 2026-04-30 19:15 | 53.37797 | 9.69867 | 4994 ft | 244 kts | 227° |
| 2026-04-30 19:15 | 53.36706 | 9.67692 | 4990 ft | 244 kts | 227° |
| 2026-04-30 19:16 | 53.35614 | 9.65513 | 4992 ft | 244 kts | 227° |
| 2026-04-30 19:16 | 53.34518 | 9.63331 | 4997 ft | 244 kts | 227° |
| 2026-04-30 19:16 | 53.32317 | 9.59015 | 4996 ft | 243 kts | 224° |
| 2026-04-30 19:17 | 53.31398 | 9.56679 | 5003 ft | 246 kts | 248° |
| 2026-04-30 19:17 | 53.31877 | 9.51197 | 4991 ft | 248 kts | 310° |
| 2026-04-30 19:17 | 53.33227 | 9.49481 | 4991 ft | 244 kts | 342° |
| 2026-04-30 19:18 | 53.35904 | 9.49676 | 4991 ft | 235 kts | 23° |
| 2026-04-30 19:18 | 53.37848 | 9.51227 | 5000 ft | 229 kts | 44° |
| 2026-04-30 19:18 | 53.38995 | 9.53089 | 4997 ft | 229 kts | 49° |
| 2026-04-30 19:19 | 53.40092 | 9.55013 | 4994 ft | 228 kts | 49° |
| 2026-04-30 19:19 | 53.41179 | 9.56945 | 4993 ft | 228 kts | 50° |
| 2026-04-30 19:19 | 53.43341 | 9.60832 | 4995 ft | 228 kts | 50° |
| 2026-04-30 19:20 | 53.44404 | 9.62764 | 4994 ft | 228 kts | 50° |
| 2026-04-30 19:20 | 53.45477 | 9.64721 | 4935 ft | 228 kts | 49° |
| 2026-04-30 19:20 | 53.47630 | 9.68659 | 4371 ft | 226 kts | 50° |
| 2026-04-30 19:21 | 53.48684 | 9.70622 | 4068 ft | 228 kts | 50° |
| 2026-04-30 19:21 | 53.50774 | 9.74570 | 3447 ft | 223 kts | 45° |
| 2026-04-30 19:22 | 53.52906 | 9.78275 | 2843 ft | 217 kts | 51° |
| 2026-04-30 19:22 | 53.55668 | 9.83910 | 2035 ft | 194 kts | 51° |
| 2026-04-30 19:23 | 53.58004 | 9.88609 | 1289 ft | 151 kts | 49° |
| 2026-04-30 19:24 | 53.59197 | 9.91040 | 923 ft | 122 kts | 50° |
| 2026-04-30 19:24 | 53.59750 | 9.92161 | 765 ft | 125 kts | 50° |
| 2026-04-30 19:24 | 53.60841 | 9.94369 | 432 ft | 123 kts | 50° |
| 2026-04-30 19:25 | 53.62350 | 9.97446 | 46 ft | 108 kts | 49° |
| 2026-04-30 19:26 | 53.63063 | 9.98927 | 48 ft | 48 kts | 63° |
| 2026-04-30 19:26 | 53.63086 | 9.99237 | 47 ft | 0 kts | 89° |
| 2026-04-30 19:26 | 53.63089 | 9.99333 | 47 ft | 0 kts | 78° |
| 2026-04-30 19:27 | 53.63093 | 9.99355 | 47 ft | 3 kts | 70° |
| 2026-04-30 19:27 | 53.63210 | 9.99640 | 48 ft | 0 kts | 50° |
| 2026-04-30 19:28 | 53.63220 | 9.99661 | 48 ft | 4 kts | 50° |
| 2026-04-30 19:28 | 53.63220 | 9.99662 | 48 ft | 0 kts | 50° |
| 2026-04-30 19:29 | 53.63346 | 9.99911 | 50 ft | 16 kts | 70° |
| 2026-04-30 19:29 | 53.63343 | 9.99964 | 50 ft | 7 kts | 94° |
| 2026-04-30 19:30 | 53.63310 | 10.00054 | 49 ft | 0 kts | 141° |